createdAt,value
2018-07-21T00:02:17.867Z,18.81
2018-07-21T00:04:48.024Z,18.83
2018-07-21T00:07:18.058Z,18.83
2018-07-21T00:09:46.779Z,18.82
2018-07-21T00:12:15.482Z,18.82
2018-07-21T00:14:44.462Z,18.82
2018-07-21T00:17:13.589Z,18.82
2018-07-21T00:19:44.339Z,18.82
2018-07-21T00:22:14.164Z,18.82
2018-07-21T00:24:45.746Z,18.82
2018-07-21T00:27:14.497Z,18.81
2018-07-21T00:29:43.250Z,18.81
2018-07-21T00:32:12.166Z,18.81
2018-07-21T00:34:41.144Z,18.81
2018-07-21T00:37:12.680Z,18.82
2018-07-21T00:39:44.915Z,18.82
2018-07-21T00:42:14.776Z,18.82
2018-07-21T00:44:45.359Z,18.82
2018-07-21T00:47:14.107Z,18.81
2018-07-21T00:49:42.879Z,18.81
2018-07-21T00:52:11.689Z,18.82
2018-07-21T00:54:40.665Z,18.82
2018-07-21T00:57:09.905Z,18.83
2018-07-21T00:59:41.641Z,18.81
2018-07-21T01:02:11.615Z,18.81
2018-07-21T01:04:40.880Z,18.81
2018-07-21T01:07:10.791Z,18.81
2018-07-21T01:09:39.624Z,18.82
2018-07-21T01:12:08.378Z,18.81
2018-07-21T01:14:37.110Z,18.80
2018-07-21T01:17:06.456Z,18.80
2018-07-21T01:19:37.858Z,18.79
2018-07-21T01:22:07.651Z,18.77
2018-07-21T01:24:36.994Z,18.76
2018-07-21T01:27:05.766Z,18.75
2018-07-21T01:29:34.527Z,18.76
2018-07-21T01:32:03.298Z,18.76
2018-07-21T01:34:32.302Z,18.75
2018-07-21T01:37:02.346Z,18.75
2018-07-21T01:39:33.066Z,18.74
2018-07-21T01:42:03.296Z,18.73
2018-07-21T01:44:32.520Z,18.74
2018-07-21T01:47:01.290Z,18.74
2018-07-21T01:49:30.086Z,18.73
2018-07-21T01:51:59.263Z,18.70
2018-07-21T01:54:29.043Z,18.68
2018-07-21T01:57:00.033Z,18.66
2018-07-21T01:59:31.181Z,18.63
2018-07-21T02:02:04.745Z,18.62
2018-07-21T02:04:34.306Z,18.60
2018-07-21T02:07:03.279Z,18.57
2018-07-21T02:09:32.130Z,18.55
2018-07-21T02:12:01.144Z,18.51
2018-07-21T02:14:31.607Z,18.50
2018-07-21T02:17:01.855Z,18.47
2018-07-21T02:19:33.622Z,18.43
2018-07-21T02:22:05.184Z,18.41
2018-07-21T02:24:34.014Z,18.40
2018-07-21T02:27:02.806Z,18.39
2018-07-21T02:29:31.841Z,18.37
2018-07-21T02:32:02.725Z,18.37
2018-07-21T02:34:33.036Z,18.37
2018-07-21T02:37:03.661Z,18.35
2018-07-21T02:39:34.050Z,18.35
2018-07-21T02:42:02.795Z,18.36
2018-07-21T02:44:31.501Z,18.36
2018-07-21T02:47:00.258Z,18.36
2018-07-21T02:49:29.451Z,18.35
2018-07-21T02:52:01.533Z,18.35
2018-07-21T02:54:33.075Z,18.35
2018-07-21T02:57:06.912Z,18.35
2018-07-21T02:59:38.542Z,18.34
2018-07-21T03:02:07.357Z,18.34
2018-07-21T03:04:36.131Z,18.34
2018-07-21T03:07:05.362Z,18.33
2018-07-21T03:09:35.348Z,18.34
2018-07-21T03:12:06.389Z,18.34
2018-07-21T03:14:37.554Z,18.35
2018-07-21T03:17:06.410Z,18.36
2018-07-21T03:19:35.190Z,18.35
2018-07-21T03:22:04.005Z,18.36
2018-07-21T03:24:33.022Z,18.36
2018-07-21T03:27:04.885Z,18.36
2018-07-21T03:29:34.966Z,18.34
2018-07-21T03:32:04.903Z,18.33
2018-07-21T03:34:33.791Z,18.32
2018-07-21T03:37:02.551Z,18.30
2018-07-21T03:39:31.332Z,18.28
2018-07-21T03:42:00.703Z,18.25
2018-07-21T03:44:30.023Z,18.22
2018-07-21T03:46:59.831Z,18.19
2018-07-21T03:49:29.020Z,18.19
2018-07-21T03:51:57.740Z,18.18
2018-07-21T03:54:26.356Z,18.18
2018-07-21T03:56:56.046Z,18.18
2018-07-21T03:59:25.162Z,18.18
2018-07-21T04:01:56.877Z,18.17
2018-07-21T04:04:26.847Z,18.16
2018-07-21T04:06:56.698Z,18.17
2018-07-21T04:09:25.390Z,18.15
2018-07-21T04:11:54.041Z,18.15
2018-07-21T04:14:22.789Z,18.16
2018-07-21T04:16:51.815Z,18.16
2018-07-21T04:19:20.917Z,18.15
2018-07-21T04:21:50.783Z,18.13
2018-07-21T04:24:20.711Z,18.13
2018-07-21T04:26:49.492Z,18.13
2018-07-21T04:29:18.165Z,18.10
2018-07-21T04:31:46.994Z,18.10
2018-07-21T04:34:15.905Z,18.08
2018-07-21T04:36:49.412Z,18.07
2018-07-21T04:39:20.522Z,18.05
2018-07-21T04:41:50.930Z,18.02
2018-07-21T04:44:22.366Z,18.03
2018-07-21T04:46:51.174Z,18.03
2018-07-21T04:49:19.958Z,18.04
2018-07-21T04:51:48.845Z,18.06
2018-07-21T04:54:17.910Z,18.08
2018-07-21T04:56:48.826Z,18.10
2018-07-21T04:59:21.726Z,18.09
2018-07-21T05:01:53.042Z,18.11
2018-07-21T05:04:23.528Z,18.12
2018-07-21T05:06:54.628Z,18.14
2018-07-21T05:09:24.848Z,18.15
2018-07-21T05:12:01.074Z,18.16
2018-07-21T05:14:29.841Z,18.18
2018-07-21T05:16:58.718Z,18.20
2018-07-21T05:19:29.854Z,18.21
2018-07-21T05:22:02.250Z,18.23
2018-07-21T05:24:34.376Z,18.24
2018-07-21T05:27:05.123Z,18.28
2018-07-21T05:29:33.906Z,18.30
2018-07-21T05:32:02.647Z,18.34
2018-07-21T05:34:31.454Z,18.38
2018-07-21T05:37:02.228Z,18.44
2018-07-21T05:39:32.351Z,18.48
2018-07-21T05:42:02.435Z,18.51
2018-07-21T05:44:34.208Z,18.54
2018-07-21T05:47:02.982Z,18.58
2018-07-21T05:49:31.715Z,18.61
2018-07-21T05:52:00.618Z,18.67
2018-07-21T05:54:29.601Z,18.72
2018-07-21T05:57:01.785Z,18.78
2018-07-21T05:59:33.901Z,18.84
2018-07-21T06:02:06.228Z,18.88
2018-07-21T06:04:36.516Z,18.93
2018-07-21T06:07:05.375Z,18.98
2018-07-21T06:09:34.126Z,19.02
2018-07-21T06:12:02.908Z,19.07
2018-07-21T06:14:31.726Z,19.13
2018-07-21T06:17:01.743Z,19.16
2018-07-21T06:19:33.201Z,19.19
2018-07-21T06:22:06.830Z,19.22
2018-07-21T06:24:36.454Z,19.24
2018-07-21T06:27:05.383Z,19.28
2018-07-21T06:29:34.068Z,19.30
2018-07-21T06:32:02.875Z,19.31
2018-07-21T06:34:31.766Z,19.34
2018-07-21T06:37:01.503Z,19.37
2018-07-21T06:39:31.113Z,19.41
2018-07-21T06:42:33.485Z,19.43
2018-07-21T06:45:02.676Z,19.43
2018-07-21T06:47:31.433Z,19.45
2018-07-21T06:50:00.233Z,19.48
2018-07-21T06:52:29.246Z,19.50
2018-07-21T06:55:00.092Z,19.50
2018-07-21T06:57:29.799Z,19.53
2018-07-21T07:00:02.162Z,19.56
2018-07-21T07:02:30.925Z,19.59
2018-07-21T07:04:59.767Z,19.61
2018-07-21T07:07:28.595Z,19.62
2018-07-21T07:09:57.714Z,19.61
2018-07-21T07:12:27.464Z,19.64
2018-07-21T07:14:57.146Z,19.69
2018-07-21T07:17:27.743Z,19.76
2018-07-21T07:19:56.803Z,19.81
2018-07-21T07:22:25.599Z,19.83
2018-07-21T07:24:54.438Z,19.87
2018-07-21T07:27:23.440Z,19.94
2018-07-21T07:29:53.590Z,20.00
2018-07-21T07:32:25.336Z,20.11
2018-07-21T07:34:55.625Z,20.20
2018-07-21T07:37:25.506Z,20.28
2018-07-21T07:39:54.290Z,20.36
2018-07-21T07:42:23.131Z,20.42
2018-07-21T07:44:52.220Z,20.42
2018-07-21T07:47:33.355Z,20.43
2018-07-21T07:50:07.071Z,20.46
2018-07-21T07:52:37.490Z,20.49
2018-07-21T07:59:36.971Z,20.48
2018-07-21T08:02:06.889Z,20.46
2018-07-21T08:04:37.239Z,20.45
2018-07-21T08:07:06.228Z,20.46
2018-07-21T08:09:35.700Z,20.47
2018-07-21T08:12:04.465Z,20.49
2018-07-21T08:14:38.160Z,20.51
2018-07-21T08:17:10.203Z,20.52
2018-07-21T08:19:41.648Z,20.55
2018-07-21T08:22:11.461Z,20.58
2018-07-21T08:24:41.143Z,20.62
2018-07-21T08:27:10.023Z,20.70
2018-07-21T08:29:38.770Z,20.76
2018-07-21T08:32:07.911Z,20.83
2018-07-21T08:46:14.972Z,21.20
2018-07-21T08:48:43.758Z,21.29
2018-07-21T08:51:12.638Z,21.41
2018-07-21T08:53:41.555Z,21.52
2018-07-21T08:56:11.041Z,21.62
2018-07-21T09:03:39.974Z,21.71
2018-07-21T09:06:10.463Z,21.79
2018-07-21T09:08:40.404Z,21.88
2018-07-21T09:11:09.206Z,21.93
2018-07-21T09:13:37.850Z,21.99
2018-07-21T09:16:06.541Z,22.03
2018-07-21T09:26:03.582Z,22.07
2018-07-21T09:28:32.410Z,22.14
2018-07-21T09:31:01.141Z,22.22
2018-07-21T09:33:30.402Z,22.35
2018-07-21T09:44:56.861Z,22.85
2018-07-21T09:47:25.521Z,22.99
2018-07-21T09:49:54.310Z,23.07
2018-07-21T09:52:23.187Z,23.19
2018-07-21T10:06:47.625Z,23.68
2018-07-21T10:09:16.335Z,23.83
2018-07-21T10:21:18.175Z,23.90
2018-07-21T10:23:47.268Z,23.94
2018-07-21T10:26:21.504Z,23.97
2018-07-21T10:41:01.295Z,24.87
2018-07-21T10:43:30.274Z,24.77
2018-07-21T10:45:59.110Z,24.53
2018-07-21T10:57:36.394Z,23.63
2018-07-21T11:00:05.474Z,23.66
2018-07-21T11:02:34.398Z,23.65
2018-07-21T11:17:06.082Z,23.69
2018-07-21T11:19:35.061Z,23.72
2018-07-21T11:22:05.365Z,23.75
2018-07-21T11:39:50.448Z,24.53
2018-07-21T11:42:19.366Z,24.70
2018-07-21T11:44:48.318Z,24.90
2018-07-21T12:11:41.807Z,24.97
2018-07-21T12:14:10.862Z,25.10
2018-07-21T12:16:39.990Z,25.26
2018-07-21T12:34:22.792Z,25.70
2018-07-21T12:36:52.083Z,25.80
2018-07-21T12:39:22.303Z,25.70
2018-07-21T12:53:59.984Z,25.42
2018-07-21T12:57:21.196Z,25.61
2018-07-21T13:24:13.716Z,26.68
2018-07-21T13:26:42.820Z,26.60
2018-07-21T13:29:16.368Z,26.53
2018-07-21T13:46:58.716Z,27.24
2018-07-21T13:49:28.031Z,27.19
2018-07-21T13:51:57.506Z,27.20
2018-07-21T14:06:57.509Z,27.01
2018-07-21T14:09:26.518Z,27.16
2018-07-21T14:11:55.544Z,27.25
2018-07-21T14:14:24.626Z,27.36
2018-07-21T14:32:08.716Z,27.68
2018-07-21T14:34:38.486Z,27.80
2018-07-21T14:37:08.007Z,27.97
2018-07-21T14:54:51.864Z,28.37
2018-07-21T14:57:20.874Z,28.45
2018-07-21T14:59:49.900Z,28.61
2018-07-21T15:17:35.276Z,28.99
2018-07-21T15:20:04.741Z,29.14
2018-07-21T15:22:34.799Z,29.35
2018-07-21T15:37:14.676Z,29.51
2018-07-21T15:39:44.086Z,29.62
2018-07-21T15:42:13.766Z,29.85
2018-07-21T15:56:55.336Z,30.22
2018-07-21T15:59:24.271Z,30.41
2018-07-21T16:01:58.740Z,30.64
2018-07-21T16:19:42.891Z,31.20
2018-07-21T16:22:12.100Z,31.13
2018-07-21T16:24:41.275Z,30.68
2018-07-21T16:36:18.899Z,29.78
2018-07-21T16:38:47.965Z,29.82
2018-07-21T16:41:17.038Z,29.60
2018-07-21T16:58:59.325Z,30.50
2018-07-21T17:01:28.434Z,30.54
2018-07-21T17:03:57.791Z,30.72
2018-07-21T17:18:38.579Z,30.14
2018-07-21T17:21:07.704Z,29.82
2018-07-21T17:23:36.793Z,29.96
2018-07-21T17:35:15.017Z,29.75
2018-07-21T17:37:44.191Z,29.60
2018-07-21T17:40:13.267Z,29.45
2018-07-21T17:54:51.064Z,28.97
2018-07-21T17:57:20.149Z,29.02
2018-07-21T17:59:49.239Z,29.18
2018-07-21T18:11:26.501Z,27.97
2018-07-21T18:13:55.431Z,27.48
2018-07-21T18:16:24.440Z,27.04
2018-07-21T18:31:04.298Z,25.29
2018-07-21T18:33:33.557Z,25.11
2018-07-21T18:36:02.726Z,24.91
2018-07-21T18:50:42.134Z,24.09
2018-07-21T18:53:11.265Z,23.98
2018-07-21T18:55:40.533Z,23.84
2018-07-21T19:13:22.998Z,23.09
2018-07-21T19:15:56.938Z,22.99
2018-07-21T19:18:25.956Z,22.87
2018-07-21T19:33:23.390Z,22.30
2018-07-21T19:35:52.369Z,22.20
2018-07-21T19:38:21.795Z,22.13
2018-07-21T19:40:50.987Z,22.07
2018-07-21T19:52:41.839Z,21.67
2018-07-21T19:55:11.034Z,21.59
2018-07-21T19:57:40.293Z,21.56
2018-07-21T20:00:09.383Z,21.51
2018-07-21T20:14:49.750Z,21.28
2018-07-21T20:17:23.420Z,21.23
2018-07-21T20:19:52.599Z,21.18
2018-07-21T20:37:34.812Z,21.00
2018-07-21T20:40:04.782Z,20.97
2018-07-21T20:42:33.819Z,20.96
2018-07-21T20:57:13.364Z,20.80
2018-07-21T20:59:42.256Z,20.79
2018-07-21T21:02:11.411Z,20.77
2018-07-21T21:16:51.920Z,20.57
2018-07-21T21:19:20.928Z,20.56
2018-07-21T21:21:50.256Z,20.55
2018-07-21T21:36:50.070Z,20.28
2018-07-21T21:39:19.126Z,20.26
2018-07-21T21:41:48.195Z,20.26
2018-07-21T21:44:17.485Z,20.25
2018-07-21T22:05:03.989Z,20.13
2018-07-21T22:07:32.945Z,20.10
2018-07-21T22:10:03.267Z,20.10
2018-07-21T22:30:49.439Z,20.09
2018-07-21T22:33:18.317Z,20.08
2018-07-21T22:35:47.322Z,20.05
2018-07-21T22:59:37.668Z,19.77
2018-07-21T23:02:06.814Z,19.74
2018-07-21T23:04:35.771Z,19.70
2018-07-21T23:07:06.170Z,19.66
2018-07-21T23:40:01.551Z,19.05
2018-07-21T23:42:31.461Z,19.04
2018-07-21T23:45:00.596Z,19.05
